Time;durP1;ratioP1;P1;durP2;ratioP2;P2;SDS_P1;SDS_P2;PMS_P1;PMS_P2;Temp;Humidity;BMP_temperature;BMP_pressure;BME280_temperature;BME280_humidity;BME280_pressure;Samples;Min_cycle;Max_cycle;Signal;HPM_P1;HPM_P2
2022/05/27 00:01:30;;;;;;;2.10;1.70;;;15.80;53.50;;;;;;4957192;28;20466;-76
2022/05/27 00:03:59;;;;;;;1.57;1.47;;;15.80;53.90;;;;;;4958462;28;20424;-75
2022/05/27 00:06:27;;;;;;;4.03;1.90;;;15.80;54.60;;;;;;4962337;28;20545;-75
2022/05/27 00:08:56;;;;;;;1.87;1.60;;;15.70;54.60;;;;;;4969787;28;20432;-75
2022/05/27 00:11:23;;;;;;;2.67;1.80;;;15.70;54.60;;;;;;4952017;28;20459;-75
2022/05/27 00:13:51;;;;;;;1.80;1.70;;;15.70;54.60;;;;;;4947425;29;20480;-76
2022/05/27 00:16:18;;;;;;;3.00;1.80;;;15.70;54.60;;;;;;4972474;28;20412;-75
2022/05/27 00:18:45;;;;;;;3.80;1.97;;;15.70;54.60;;;;;;4964173;28;20847;-75
2022/05/27 00:21:13;;;;;;;2.93;1.97;;;15.70;54.60;;;;;;4942179;28;20425;-75
2022/05/27 00:23:40;;;;;;;3.03;1.97;;;15.60;54.50;;;;;;4938672;29;20466;-74
2022/05/27 00:26:12;;;;;;;2.53;2.00;;;15.60;55.00;;;;;;4937015;29;20571;-74
2022/05/27 00:28:48;;;;;;;3.40;1.83;;;15.60;55.60;;;;;;4940765;29;20474;-75
2022/05/27 00:31:18;;;;;;;2.40;2.20;;;15.60;55.60;;;;;;4935955;29;20557;-75
2022/05/27 00:33:45;;;;;;;3.00;1.83;;;15.60;55.70;;;;;;4936286;29;20832;-74
2022/05/27 00:36:12;;;;;;;3.50;2.10;;;15.60;55.90;;;;;;4936008;29;20429;-75
2022/05/27 00:38:39;;;;;;;2.00;1.70;;;15.60;55.90;;;;;;4936537;29;20823;-74
2022/05/27 00:41:06;;;;;;;1.73;1.60;;;15.50;56.30;;;;;;4935932;29;20568;-74
2022/05/27 00:43:35;;;;;;;2.23;2.03;;;15.50;56.50;;;;;;4936321;29;20482;-75
2022/05/27 00:46:05;;;;;;;1.90;1.70;;;15.50;56.90;;;;;;4936153;28;21028;-75
2022/05/27 00:48:40;;;;;;;1.83;1.73;;;15.40;57.20;;;;;;4936395;29;20496;-76
2022/05/27 00:51:14;;;;;;;4.40;1.80;;;15.40;57.50;;;;;;4953723;29;20519;-75
2022/05/27 00:53:45;;;;;;;2.20;1.87;;;15.50;57.70;;;;;;4957170;28;20489;-75
2022/05/27 00:56:17;;;;;;;3.87;1.80;;;15.40;57.60;;;;;;4958341;28;20828;-75
2022/05/27 00:58:50;;;;;;;3.87;1.50;;;15.50;57.90;;;;;;4958230;28;20492;-76
2022/05/27 01:01:17;;;;;;;4.40;2.00;;;15.40;57.60;;;;;;4957746;28;20833;-76
2022/05/27 01:03:45;;;;;;;6.93;2.00;;;15.40;58.00;;;;;;4956191;28;20458;-74
2022/05/27 01:06:13;;;;;;;3.63;1.87;;;15.40;58.20;;;;;;4957821;28;20417;-75
2022/05/27 01:08:40;;;;;;;2.20;2.00;;;15.40;58.40;;;;;;4958513;28;20508;-75
2022/05/27 01:11:19;;;;;;;3.70;2.00;;;15.30;58.50;;;;;;4958569;28;21139;-75
2022/05/27 01:14:00;;;;;;;2.50;2.30;;;15.30;58.90;;;;;;4958277;28;20462;-75
2022/05/27 01:16:35;;;;;;;2.40;2.20;;;15.30;59.20;;;;;;4958094;28;20526;-77
2022/05/27 01:22:30;;;;;;;4.80;2.27;;;15.20;60.50;;;;;;4958194;29;20793;-76
2022/05/27 01:25:21;;;;;;;3.77;2.30;;;15.10;60.10;;;;;;4958618;28;20524;-76
2022/05/27 01:28:16;;;;;;;2.10;1.80;;;15.10;60.40;;;;;;4958607;28;20835;-76
2022/05/27 01:30:48;;;;;;;3.73;2.20;;;15.10;61.00;;;;;;4933189;28;20425;-75
2022/05/27 01:33:28;;;;;;;3.13;2.20;;;15.10;61.10;;;;;;4939804;29;20448;-75
2022/05/27 01:36:04;;;;;;;8.37;3.00;;;15.00;61.30;;;;;;4948719;28;20301;-75
2022/05/27 01:38:38;;;;;;;2.43;2.23;;;15.00;61.50;;;;;;4958509;28;20477;-76
2022/05/27 01:41:10;;;;;;;1.77;1.67;;;15.10;61.70;;;;;;4958235;28;20432;-75
2022/05/27 01:43:42;;;;;;;2.90;1.93;;;15.00;61.60;;;;;;4958375;28;20436;-76
2022/05/27 01:46:14;;;;;;;2.63;2.43;;;15.00;62.00;;;;;;4959087;28;20560;-74
2022/05/27 01:48:52;;;;;;;5.07;2.40;;;15.00;61.80;;;;;;4959363;28;20569;-75
2022/05/27 01:51:24;;;;;;;2.50;1.90;;;15.00;62.60;;;;;;4959028;28;20526;-75
2022/05/27 01:53:58;;;;;;;3.13;2.53;;;15.00;62.50;;;;;;4957663;28;20987;-75
2022/05/27 01:56:29;;;;;;;2.70;2.47;;;14.90;63.10;;;;;;4957299;28;20828;-76
2022/05/27 01:59:00;;;;;;;3.77;2.30;;;14.90;63.10;;;;;;4957978;28;20539;-75
2022/05/27 02:01:36;;;;;;;3.17;2.30;;;14.90;63.10;;;;;;4958889;28;20429;-75
2022/05/27 02:04:07;;;;;;;1.80;1.70;;;14.90;63.10;;;;;;4957271;28;20427;-75
2022/05/27 02:06:38;;;;;;;3.27;2.17;;;15.00;63.20;;;;;;4957469;28;20798;-75
2022/05/27 02:09:12;;;;;;;3.80;2.23;;;15.00;63.20;;;;;;4956943;28;20869;-75
2022/05/27 02:11:42;;;;;;;3.43;2.10;;;15.00;62.60;;;;;;4938855;28;20474;-75
2022/05/27 02:14:13;;;;;;;3.07;2.10;;;15.00;62.30;;;;;;4937754;29;20879;-74
2022/05/27 02:16:46;;;;;;;2.63;1.90;;;15.00;62.80;;;;;;4937719;29;20860;-75
2022/05/27 02:19:20;;;;;;;4.50;2.50;;;15.10;62.60;;;;;;4942818;29;20548;-75
2022/05/27 02:21:51;;;;;;;3.60;2.77;;;15.10;62.50;;;;;;4937886;29;20834;-74
2022/05/27 02:24:25;;;;;;;2.20;2.00;;;15.10;62.70;;;;;;4938993;29;20460;-74
2022/05/27 02:26:57;;;;;;;3.00;2.10;;;15.10;62.80;;;;;;4939515;29;20478;-75
2022/05/27 02:29:28;;;;;;;5.90;2.40;;;15.10;62.90;;;;;;4944204;29;20453;-74
2022/05/27 02:32:02;;;;;;;4.07;2.03;;;15.10;62.90;;;;;;4954372;29;20478;-75
2022/05/27 02:37:25;;;;;;;2.37;2.17;;;15.00;63.20;;;;;;4958785;29;20445;-75
2022/05/27 02:39:53;;;;;;;5.80;2.13;;;15.00;63.20;;;;;;4938289;29;20436;-74
2022/05/27 02:42:32;;;;;;;2.73;2.20;;;14.90;63.10;;;;;;4937775;29;20554;-75
2022/05/27 02:45:09;;;;;;;5.00;2.50;;;14.90;63.80;;;;;;4937290;29;20770;-75
2022/05/27 02:47:42;;;;;;;2.63;2.20;;;14.90;64.50;;;;;;4937629;29;20519;-74
2022/05/27 02:50:13;;;;;;;2.40;2.20;;;14.90;64.90;;;;;;4937174;28;20460;-75
2022/05/27 02:52:47;;;;;;;2.43;2.23;;;14.90;65.90;;;;;;4936971;29;20483;-75
2022/05/27 02:55:19;;;;;;;2.20;2.00;;;14.90;65.00;;;;;;4936823;29;20468;-75
2022/05/27 02:57:48;;;;;;;3.30;2.33;;;14.80;65.60;;;;;;4937315;29;20559;-75
2022/05/27 03:00:18;;;;;;;6.00;2.50;;;14.80;65.90;;;;;;4937388;29;20959;-76
2022/05/27 03:02:47;;;;;;;2.77;2.43;;;14.70;66.60;;;;;;4969523;23;20480;-77
2022/05/27 03:05:15;;;;;;;3.40;2.50;;;14.70;66.80;;;;;;4955968;29;20475;-77
2022/05/27 03:07:59;;;;;;;3.47;2.00;;;14.70;67.20;;;;;;4957598;29;20446;-77
2022/05/27 03:10:36;;;;;;;2.63;2.43;;;14.70;67.30;;;;;;4958166;28;20441;-76
2022/05/27 03:13:20;;;;;;;3.30;2.23;;;14.70;67.40;;;;;;4948269;28;20536;-77
2022/05/27 03:16:02;;;;;;;2.10;2.00;;;14.70;67.40;;;;;;4940689;29;20500;-76
2022/05/27 03:18:48;;;;;;;3.40;2.53;;;14.70;67.70;;;;;;4944002;29;20453;-76
2022/05/27 03:21:23;;;;;;;3.70;2.67;;;14.60;68.20;;;;;;4953869;29;20446;-76
2022/05/27 03:24:08;;;;;;;3.43;2.50;;;14.60;68.90;;;;;;4938016;29;20481;-76
2022/05/27 03:26:45;;;;;;;4.43;2.70;;;14.60;69.30;;;;;;4937257;29;20517;-77
2022/05/27 03:29:24;;;;;;;4.23;3.40;;;14.60;69.40;;;;;;4936495;29;20425;-77
2022/05/27 03:31:56;;;;;;;2.93;2.70;;;14.60;69.70;;;;;;4937069;29;20472;-77
2022/05/27 03:34:29;;;;;;;3.37;3.00;;;14.50;70.30;;;;;;4936500;29;20453;-77
2022/05/27 03:37:02;;;;;;;5.60;3.13;;;14.50;70.20;;;;;;4937687;29;20442;-77
2022/05/27 03:39:35;;;;;;;6.85;3.05;;;14.60;70.90;;;;;;4937165;29;20460;-77
2022/05/27 03:42:06;;;;;;;4.63;3.10;;;14.50;71.60;;;;;;4937471;29;20242;-77
2022/05/27 03:44:33;;;;;;;4.23;3.00;;;14.60;71.80;;;;;;4937056;29;20523;-77
2022/05/27 03:47:01;;;;;;;9.13;3.50;;;14.70;71.10;;;;;;4937180;29;20439;-77
2022/05/27 03:49:30;;;;;;;3.10;2.80;;;14.80;70.10;;;;;;4937593;29;20437;-77
2022/05/27 03:52:00;;;;;;;4.53;3.37;;;14.80;69.70;;;;;;4937531;29;20465;-77
2022/05/27 03:54:27;;;;;;;4.10;2.93;;;14.90;69.00;;;;;;4939380;29;20455;-77
2022/05/27 03:56:53;;;;;;;4.03;2.83;;;15.00;68.60;;;;;;4940599;29;20468;-77
2022/05/27 03:59:21;;;;;;;4.73;3.13;;;15.10;68.00;;;;;;4940816;29;20468;-78
2022/05/27 04:01:49;;;;;;;3.20;2.87;;;15.10;67.50;;;;;;4940524;29;21000;-77
2022/05/27 04:04:18;;;;;;;3.33;2.93;;;15.20;66.90;;;;;;4941993;29;20494;-77
2022/05/27 04:06:47;;;;;;;5.67;3.13;;;15.30;66.30;;;;;;4943171;29;20440;-77
2022/05/27 04:09:14;;;;;;;4.47;3.27;;;15.40;65.30;;;;;;4942927;29;20448;-77
2022/05/27 04:11:42;;;;;;;3.57;2.87;;;15.40;64.80;;;;;;4943917;29;20454;-77
2022/05/27 04:14:09;;;;;;;8.23;3.03;;;15.50;64.30;;;;;;4941147;29;20478;-78
2022/05/27 04:16:37;;;;;;;4.40;3.57;;;15.60;63.80;;;;;;4942503;29;20510;-78
2022/05/27 04:19:04;;;;;;;5.80;3.30;;;15.60;62.90;;;;;;4945127;29;20460;-77
2022/05/27 04:21:32;;;;;;;5.83;4.20;;;15.70;61.90;;;;;;4946146;29;20435;-77
2022/05/27 04:24:00;;;;;;;6.47;4.10;;;15.70;61.80;;;;;;4943473;29;20514;-78
2022/05/27 04:26:27;;;;;;;6.47;4.00;;;15.70;61.40;;;;;;4943198;29;20487;-77
2022/05/27 04:28:54;;;;;;;6.60;4.00;;;15.70;61.30;;;;;;4946729;29;20458;-78
2022/05/27 04:31:21;;;;;;;5.33;4.27;;;15.70;61.10;;;;;;4945660;29;20454;-78
2022/05/27 04:33:49;;;;;;;6.07;3.70;;;15.70;61.30;;;;;;4945605;29;20465;-77
2022/05/27 04:36:16;;;;;;;5.53;3.73;;;15.70;60.60;;;;;;4945858;29;20502;-77
2022/05/27 04:38:43;;;;;;;5.33;3.90;;;15.70;60.60;;;;;;4946581;29;20441;-78
2022/05/27 04:41:12;;;;;;;5.73;3.90;;;15.70;60.50;;;;;;4945074;29;20541;-77
2022/05/27 04:43:39;;;;;;;5.80;3.27;;;15.70;60.40;;;;;;4946630;29;20537;-77
2022/05/27 04:46:05;;;;;;;4.37;3.27;;;15.80;60.30;;;;;;4950296;29;20478;-78
2022/05/27 04:48:32;;;;;;;5.63;3.73;;;15.80;60.50;;;;;;4949842;29;20895;-77
2022/05/27 04:50:59;;;;;;;3.83;3.50;;;15.70;60.40;;;;;;4950327;29;20441;-77
2022/05/27 04:53:26;;;;;;;5.93;3.80;;;15.80;60.50;;;;;;4949462;29;20847;-77
2022/05/27 04:55:53;;;;;;;4.60;3.80;;;15.80;60.40;;;;;;4949026;29;20471;-77
2022/05/27 04:58:22;;;;;;;3.80;3.50;;;15.80;60.40;;;;;;4947837;29;20458;-76
2022/05/27 05:00:49;;;;;;;3.33;2.93;;;15.80;60.40;;;;;;4947302;29;20437;-78
2022/05/27 05:03:17;;;;;;;6.60;4.00;;;15.80;60.10;;;;;;4948622;29;20504;-77
2022/05/27 05:05:44;;;;;;;5.20;3.30;;;15.80;60.20;;;;;;4943184;29;20444;-77
2022/05/27 05:08:19;;;;;;;5.20;3.00;;;15.80;60.40;;;;;;4950350;29;20405;-76
2022/05/27 05:10:46;;;;;;;6.37;3.50;;;15.80;60.80;;;;;;4952325;29;20485;-76
2022/05/27 05:13:13;;;;;;;3.80;3.50;;;15.90;60.60;;;;;;4950990;29;20974;-76
2022/05/27 05:15:41;;;;;;;4.40;3.30;;;15.90;60.10;;;;;;4952165;29;20495;-76
2022/05/27 05:18:08;;;;;;;5.57;3.60;;;15.90;60.10;;;;;;4953591;29;20455;-77
2022/05/27 05:20:36;;;;;;;5.30;3.80;;;15.90;60.10;;;;;;4954419;29;20448;-77
2022/05/27 05:23:03;;;;;;;3.60;3.17;;;16.00;59.70;;;;;;4947404;29;20540;-77
2022/05/27 05:25:30;;;;;;;4.20;3.50;;;16.00;59.60;;;;;;4937691;29;20465;-77
2022/05/27 05:27:57;;;;;;;4.13;3.33;;;16.00;59.60;;;;;;4940706;29;20504;-77
2022/05/27 05:30:26;;;;;;;3.07;2.80;;;16.10;59.50;;;;;;4939712;29;20443;-77
2022/05/27 05:32:54;;;;;;;4.00;3.40;;;16.10;59.00;;;;;;4941229;29;20566;-77
2022/05/27 05:35:22;;;;;;;3.20;2.90;;;16.10;58.60;;;;;;4942994;29;20814;-76
2022/05/27 05:37:50;;;;;;;5.40;3.53;;;16.10;58.60;;;;;;4936101;29;20437;-77
2022/05/27 05:40:17;;;;;;;3.20;2.90;;;16.10;58.50;;;;;;4936677;29;20527;-77
2022/05/27 05:42:46;;;;;;;3.90;2.77;;;16.10;58.90;;;;;;4936443;29;21033;-76
2022/05/27 05:45:14;;;;;;;4.50;3.00;;;16.10;58.60;;;;;;4936552;29;20926;-77
2022/05/27 05:47:41;;;;;;;4.80;3.70;;;16.10;58.70;;;;;;4936366;29;20502;-77
2022/05/27 05:50:11;;;;;;;3.27;2.97;;;16.20;58.40;;;;;;4936290;29;20562;-77
2022/05/27 05:52:38;;;;;;;4.80;3.37;;;16.20;57.80;;;;;;4939317;29;20480;-76
2022/05/27 05:55:05;;;;;;;5.43;3.57;;;16.10;58.10;;;;;;4939994;29;20858;-77
2022/05/27 05:57:32;;;;;;;5.00;3.20;;;16.10;58.20;;;;;;4939566;29;20436;-77
2022/05/27 06:00:00;;;;;;;3.47;3.00;;;16.10;58.20;;;;;;4940564;29;20454;-77
2022/05/27 06:02:27;;;;;;;4.10;3.00;;;16.10;57.90;;;;;;4941184;29;20936;-77
2022/05/27 06:04:54;;;;;;;4.07;2.80;;;16.10;58.20;;;;;;4940112;29;20953;-77
2022/05/27 06:07:22;;;;;;;5.73;3.83;;;16.20;57.70;;;;;;4938716;29;21013;-77
2022/05/27 06:09:49;;;;;;;3.50;3.13;;;16.20;57.20;;;;;;4938616;29;20553;-77
2022/05/27 06:12:22;;;;;;;2.90;2.70;;;16.20;57.20;;;;;;4938676;29;20486;-78
2022/05/27 06:14:49;;;;;;;3.60;2.80;;;16.20;57.70;;;;;;4938524;29;20504;-78
2022/05/27 06:17:15;;;;;;;4.97;3.10;;;16.20;57.90;;;;;;4938925;29;20591;-78
2022/05/27 06:19:42;;;;;;;4.33;3.40;;;16.20;57.80;;;;;;4940385;29;20506;-79
2022/05/27 06:22:09;;;;;;;3.20;2.90;;;16.20;57.50;;;;;;4939586;29;20449;-77
2022/05/27 06:24:37;;;;;;;4.60;3.00;;;16.30;57.30;;;;;;4952582;29;20508;-78
2022/05/27 06:27:06;;;;;;;5.57;3.50;;;16.40;56.80;;;;;;4959877;29;20465;-75
2022/05/27 06:35:03;;;;;;;5.90;3.73;;;16.50;56.00;;;;;;4956905;29;20494;-76
2022/05/27 06:37:30;;;;;;;3.77;3.40;;;16.40;55.60;;;;;;4956230;29;20950;-77
2022/05/27 06:40:01;;;;;;;3.80;3.50;;;16.40;55.40;;;;;;4956767;29;20468;-77
2022/05/27 06:42:28;;;;;;;3.83;3.50;;;16.40;55.40;;;;;;4955177;29;20547;-77
2022/05/27 06:44:55;;;;;;;3.17;2.97;;;16.50;55.50;;;;;;4956311;29;20466;-77
2022/05/27 06:47:21;;;;;;;4.50;3.20;;;16.50;55.30;;;;;;4954680;28;20494;-77
2022/05/27 06:49:48;;;;;;;3.97;3.57;;;16.50;55.30;;;;;;4942513;29;20976;-78
2022/05/27 06:52:16;;;;;;;6.00;3.47;;;16.50;55.30;;;;;;4943091;29;20500;-77
2022/05/27 06:54:43;;;;;;;4.33;3.97;;;16.60;55.40;;;;;;4941567;29;20944;-77
2022/05/27 06:57:12;;;;;;;3.90;3.13;;;16.60;55.40;;;;;;4939922;29;20555;-76
2022/05/27 06:59:39;;;;;;;4.73;3.27;;;16.60;55.40;;;;;;4938781;29;20486;-77
2022/05/27 07:02:07;;;;;;;3.80;3.50;;;16.70;55.50;;;;;;4951724;28;20539;-75
2022/05/27 07:04:34;;;;;;;3.67;3.37;;;16.80;54.40;;;;;;4939363;28;20452;-76
2022/05/27 07:07:04;;;;;;;3.17;2.87;;;16.80;53.90;;;;;;4930115;29;20552;-77
2022/05/27 07:09:35;;;;;;;3.30;3.00;;;16.80;53.70;;;;;;4951621;29;20472;-76
2022/05/27 07:12:03;;;;;;;4.07;3.40;;;16.90;53.60;;;;;;4939397;29;20470;-76
2022/05/27 07:14:31;;;;;;;3.60;3.30;;;16.90;52.60;;;;;;4939287;29;20454;-76
2022/05/27 07:16:58;;;;;;;3.70;3.13;;;16.90;52.30;;;;;;4939735;29;20519;-78
2022/05/27 07:19:25;;;;;;;6.13;3.40;;;16.90;52.10;;;;;;4939520;29;20455;-76
2022/05/27 07:21:55;;;;;;;3.70;3.40;;;16.90;52.10;;;;;;4938986;29;20462;-77
2022/05/27 07:24:23;;;;;;;5.53;3.73;;;16.80;52.40;;;;;;4938327;29;20470;-77
2022/05/27 07:26:50;;;;;;;3.53;3.23;;;16.90;52.20;;;;;;4938070;29;20533;-77
2022/05/27 07:29:17;;;;;;;4.30;3.57;;;16.90;51.90;;;;;;4926108;29;20431;-77
2022/05/27 07:31:45;;;;;;;3.17;2.90;;;16.80;52.30;;;;;;4939551;29;20469;-77
2022/05/27 07:34:12;;;;;;;6.50;4.10;;;16.80;52.40;;;;;;4938862;29;20450;-77
2022/05/27 07:36:39;;;;;;;4.30;3.73;;;16.70;52.80;;;;;;4941049;29;20490;-77
2022/05/27 07:39:06;;;;;;;5.10;3.80;;;16.70;53.00;;;;;;4949066;29;20428;-78
2022/05/27 07:41:34;;;;;;;5.63;4.10;;;16.70;53.20;;;;;;4950022;28;20455;-77
2022/05/27 07:44:03;;;;;;;5.23;3.50;;;16.80;53.20;;;;;;4938370;29;20455;-77
2022/05/27 07:46:31;;;;;;;3.60;3.30;;;16.70;54.20;;;;;;4942750;29;20443;-77
2022/05/27 07:49:00;;;;;;;5.67;4.07;;;16.80;53.60;;;;;;4942848;29;20860;-77
2022/05/27 07:51:27;;;;;;;4.00;3.60;;;16.90;53.60;;;;;;4943808;29;20505;-77
2022/05/27 07:53:54;;;;;;;4.40;3.90;;;16.90;53.50;;;;;;4943522;29;20500;-77
2022/05/27 07:56:21;;;;;;;3.67;3.37;;;16.90;53.50;;;;;;4946959;29;20518;-76
2022/05/27 07:58:48;;;;;;;4.17;3.53;;;16.80;54.10;;;;;;4938936;29;20531;-77
2022/05/27 08:01:15;;;;;;;3.80;3.50;;;17.00;54.30;;;;;;4951076;29;20566;-79
2022/05/27 08:03:42;;;;;;;3.83;3.20;;;17.30;52.60;;;;;;4940560;28;20552;-77
2022/05/27 08:06:10;;;;;;;5.10;3.73;;;17.30;51.90;;;;;;4939359;29;20921;-76
2022/05/27 08:08:37;;;;;;;4.93;3.03;;;17.40;51.60;;;;;;4937114;29;20546;-77
2022/05/27 08:11:06;;;;;;;3.30;3.00;;;17.40;51.80;;;;;;4937876;29;20433;-77
2022/05/27 08:13:33;;;;;;;3.03;2.83;;;17.40;52.00;;;;;;4938229;29;20965;-77
2022/05/27 08:16:00;;;;;;;5.20;3.33;;;17.40;51.80;;;;;;4938000;29;20465;-77
2022/05/27 08:18:27;;;;;;;3.63;3.33;;;17.30;52.00;;;;;;4945237;29;20465;-77
2022/05/27 08:20:54;;;;;;;3.93;3.03;;;17.30;52.00;;;;;;4937727;29;20474;-77
2022/05/27 08:23:24;;;;;;;4.60;2.77;;;17.20;52.40;;;;;;4936476;29;20486;-77
2022/05/27 08:25:51;;;;;;;3.73;3.20;;;17.20;52.60;;;;;;4937674;29;20809;-77
2022/05/27 08:28:24;;;;;;;4.13;2.93;;;17.10;52.80;;;;;;4958613;28;20521;-77
2022/05/27 08:30:51;;;;;;;6.20;3.53;;;17.20;53.30;;;;;;4955629;28;20466;-77
2022/05/27 08:33:19;;;;;;;3.10;2.90;;;17.30;52.60;;;;;;4938553;29;20468;-78
2022/05/27 08:38:34;;;;;;;3.10;2.90;;;17.60;51.60;;;;;;4939420;29;20432;-76
2022/05/27 08:41:14;;;;;;;3.07;2.60;;;18.00;50.50;;;;;;4942939;29;20444;-77
2022/05/27 08:43:55;;;;;;;3.77;3.13;;;18.30;49.20;;;;;;4938760;29;20456;-77
2022/05/27 08:46:30;;;;;;;3.27;2.60;;;18.60;47.60;;;;;;4938157;29;20982;-77
2022/05/27 08:49:00;;;;;;;2.70;2.50;;;18.70;47.60;;;;;;4945049;29;20424;-77
2022/05/27 08:51:33;;;;;;;3.40;2.40;;;18.80;46.60;;;;;;4967981;28;20438;-76
2022/05/27 08:54:07;;;;;;;5.10;2.53;;;18.80;45.80;;;;;;4944500;28;20551;-77
2022/05/27 08:59:28;;;;;;;9.20;2.70;;;19.30;44.70;;;;;;4940629;29;20441;-77
2022/05/27 09:02:00;;;;;;;3.03;2.77;;;19.40;44.50;;;;;;4924265;29;20434;-78
2022/05/27 09:04:34;;;;;;;5.27;2.40;;;19.70;44.30;;;;;;4974981;23;20469;-80
2022/05/27 09:07:08;;;;;;;2.27;2.13;;;19.80;43.20;;;;;;4953611;29;20507;-79
2022/05/27 09:09:38;;;;;;;2.30;2.13;;;19.80;42.80;;;;;;4954219;29;20433;-80
2022/05/27 09:12:36;;;;;;;2.87;2.67;;;19.70;42.70;;;;;;4958802;28;20439;-78
2022/05/27 09:15:10;;;;;;;3.00;2.47;;;19.80;42.50;;;;;;4928099;29;20481;-78
2022/05/27 09:17:44;;;;;;;2.67;2.47;;;20.00;40.90;;;;;;4939359;29;20461;-81
2022/05/27 09:20:22;;;;;;;4.50;2.47;;;20.00;41.30;;;;;;4931834;29;20436;-80
2022/05/27 09:23:01;;;;;;;2.73;2.40;;;20.00;40.70;;;;;;4929601;29;20543;-80
2022/05/27 09:25:39;;;;;;;2.50;2.33;;;20.00;38.80;;;;;;4927058;29;20445;-81
2022/05/27 09:28:14;;;;;;;5.80;2.10;;;19.70;38.50;;;;;;4936297;29;20492;-81
2022/05/27 09:30:42;;;;;;;4.00;2.20;;;19.90;38.70;;;;;;4932736;29;20573;-79
2022/05/27 09:33:12;;;;;;;2.77;2.00;;;19.90;38.80;;;;;;4936946;29;20487;-81
2022/05/27 09:35:47;;;;;;;2.67;2.37;;;20.30;39.10;;;;;;4931200;29;20447;-82
2022/05/27 09:38:18;;;;;;;2.40;2.30;;;20.60;38.80;;;;;;4924896;29;20465;-80
2022/05/27 09:40:50;;;;;;;2.80;2.30;;;21.00;37.70;;;;;;4936272;29;20461;-81
2022/05/27 09:43:25;;;;;;;2.33;2.13;;;21.20;36.50;;;;;;4938496;29;20446;-80
2022/05/27 09:45:57;;;;;;;2.13;2.03;;;21.00;37.50;;;;;;4937746;29;20483;-81
2022/05/27 09:48:25;;;;;;;2.43;2.23;;;21.00;37.20;;;;;;4938590;29;20466;-79
2022/05/27 09:50:53;;;;;;;3.33;2.27;;;21.10;37.30;;;;;;4936458;29;20426;-79
2022/05/27 09:53:23;;;;;;;3.40;2.57;;;20.60;38.10;;;;;;4934501;29;20559;-80
2022/05/27 09:55:57;;;;;;;3.20;2.30;;;20.10;38.90;;;;;;4932586;29;20537;-81
2022/05/27 09:58:26;;;;;;;3.10;2.80;;;20.10;39.00;;;;;;4934985;29;20466;-81
2022/05/27 10:00:54;;;;;;;3.60;2.30;;;20.30;39.10;;;;;;4934640;29;20437;-78
2022/05/27 10:03:32;;;;;;;5.03;2.33;;;20.60;39.00;;;;;;4933960;29;20541;-80
2022/05/27 10:06:02;;;;;;;11.90;2.60;;;20.80;38.70;;;;;;4933940;29;20474;-80
2022/05/27 10:08:33;;;;;;;2.27;2.00;;;21.40;37.70;;;;;;4937355;29;20465;-81
2022/05/27 10:11:19;;;;;;;5.57;2.50;;;21.60;36.40;;;;;;4937000;29;20513;-80
2022/05/27 10:13:47;;;;;;;2.20;2.00;;;21.80;35.80;;;;;;4939624;29;20456;-82
2022/05/27 10:16:22;;;;;;;2.77;2.33;;;21.30;36.30;;;;;;4941037;29;20455;-81
2022/05/27 10:19:05;;;;;;;2.70;2.17;;;21.30;36.40;;;;;;4936882;29;20429;-79
2022/05/27 10:21:32;;;;;;;2.67;2.47;;;21.40;35.50;;;;;;4939232;29;20762;-79
2022/05/27 10:24:16;;;;;;;2.80;2.40;;;21.40;34.80;;;;;;4933177;29;20427;-79
2022/05/27 10:26:44;;;;;;;2.07;1.97;;;21.10;34.70;;;;;;4929486;29;20454;-79
2022/05/27 10:29:14;;;;;;;2.20;2.00;;;21.10;34.70;;;;;;4934126;29;20914;-79
2022/05/27 10:31:51;;;;;;;2.37;2.13;;;21.20;34.30;;;;;;4929910;29;20450;-78
2022/05/27 10:34:41;;;;;;;4.10;2.10;;;21.50;34.00;;;;;;4938752;29;20470;-78
2022/05/27 10:37:17;;;;;;;2.23;1.87;;;21.70;33.40;;;;;;4910920;29;20483;-79
2022/05/27 10:39:57;;;;;;;3.00;2.10;;;21.70;33.60;;;;;;4920376;29;20439;-80
2022/05/27 10:42:39;;;;;;;2.40;1.97;;;21.60;33.80;;;;;;4928144;29;20514;-79
2022/05/27 10:45:20;;;;;;;2.77;2.03;;;21.80;33.90;;;;;;4926383;29;20948;-78
2022/05/27 10:48:18;;;;;;;2.20;1.90;;;22.10;34.00;;;;;;4926648;29;20431;-79
2022/05/27 10:50:53;;;;;;;2.93;2.47;;;22.40;33.30;;;;;;4920315;29;20462;-78
2022/05/27 10:53:34;;;;;;;2.00;1.90;;;22.50;32.60;;;;;;4918805;29;20485;-79
2022/05/27 10:56:15;;;;;;;2.07;1.87;;;22.80;31.10;;;;;;4932041;29;20807;-79
2022/05/27 11:02:05;;;;;;;2.37;1.90;;;22.20;30.50;;;;;;4927642;29;20507;-78
2022/05/27 11:05:00;;;;;;;2.00;1.90;;;22.10;30.50;;;;;;4920771;29;20482;-80
2022/05/27 11:07:36;;;;;;;3.17;1.90;;;22.00;30.80;;;;;;4924089;29;20522;-79
2022/05/27 11:10:21;;;;;;;4.80;1.90;;;22.30;30.60;;;;;;4923067;29;20473;-78
2022/05/27 11:15:58;;;;;;;2.70;1.50;;;22.50;30.80;;;;;;4924562;29;20510;-77
2022/05/27 11:18:39;;;;;;;2.40;2.10;;;22.10;30.90;;;;;;4923770;29;20552;-78
2022/05/27 11:21:21;;;;;;;2.17;1.30;;;22.20;30.60;;;;;;4923709;29;20952;-79
2022/05/27 11:24:11;;;;;;;1.80;1.63;;;22.10;30.40;;;;;;4923822;29;20578;-79
2022/05/27 11:26:48;;;;;;;2.03;1.90;;;21.70;31.40;;;;;;4924151;29;20406;-77
2022/05/27 11:29:45;;;;;;;1.50;1.50;;;21.90;32.30;;;;;;4928433;29;20486;-78
2022/05/27 11:32:25;;;;;;;1.80;1.60;;;21.80;32.60;;;;;;4938433;29;20434;-78
2022/05/27 11:35:01;;;;;;;1.90;1.80;;;21.70;32.60;;;;;;4939968;29;21006;-77
2022/05/27 11:37:51;;;;;;;2.47;2.00;;;21.40;33.80;;;;;;4939204;29;20486;-78
2022/05/27 11:40:31;;;;;;;2.60;2.40;;;20.90;35.70;;;;;;4933917;29;20469;-78
2022/05/27 11:43:29;;;;;;;2.40;2.20;;;20.50;37.60;;;;;;4920673;29;20488;-78
2022/05/27 11:46:08;;;;;;;2.97;2.13;;;20.40;38.00;;;;;;4915952;29;20455;-77
2022/05/27 11:48:45;;;;;;;2.37;1.80;;;20.30;39.10;;;;;;4905922;29;20883;-79
2022/05/27 11:51:28;;;;;;;2.13;1.90;;;20.30;39.10;;;;;;4920381;29;20430;-79
2022/05/27 11:54:13;;;;;;;5.63;2.20;;;20.30;38.40;;;;;;4920811;29;20475;-78
2022/05/27 11:56:54;;;;;;;2.00;1.90;;;20.10;39.00;;;;;;4905976;29;20986;-80
2022/05/27 11:59:25;;;;;;;3.77;1.93;;;20.30;38.30;;;;;;4918542;29;20926;-77
2022/05/27 12:01:57;;;;;;;2.20;2.00;;;20.40;38.10;;;;;;4919494;29;20922;-76
2022/05/27 12:04:34;;;;;;;3.90;2.33;;;20.30;38.40;;;;;;4919728;29;21033;-78
2022/05/27 12:07:09;;;;;;;2.30;2.10;;;20.30;39.10;;;;;;4919169;29;20441;-79
2022/05/27 12:09:40;;;;;;;2.00;1.90;;;20.00;38.80;;;;;;4918996;29;20430;-77
2022/05/27 12:12:11;;;;;;;2.30;2.10;;;19.90;38.80;;;;;;4919342;29;20495;-78
2022/05/27 12:14:43;;;;;;;3.97;2.60;;;19.80;38.70;;;;;;4919175;29;20489;-79
2022/05/27 12:17:13;;;;;;;3.23;2.07;;;19.80;38.60;;;;;;4920972;29;20564;-80
2022/05/27 12:19:47;;;;;;;4.33;2.20;;;19.70;38.50;;;;;;4921216;29;20438;-79
2022/05/27 12:22:19;;;;;;;2.20;1.77;;;19.50;39.10;;;;;;4920343;29;20437;-77
2022/05/27 12:24:49;;;;;;;3.07;2.20;;;19.20;39.60;;;;;;4925115;29;20474;-78
2022/05/27 12:27:19;;;;;;;2.67;2.30;;;19.20;39.80;;;;;;4922826;29;20805;-78
2022/05/27 12:29:48;;;;;;;1.97;1.77;;;19.10;40.30;;;;;;4919880;29;20463;-78
2022/05/27 12:32:16;;;;;;;2.33;1.93;;;19.20;40.00;;;;;;4922338;29;20992;-77
2022/05/27 12:34:48;;;;;;;2.90;2.00;;;19.10;40.30;;;;;;4921582;29;20461;-77
2022/05/27 12:37:22;;;;;;;2.20;1.90;;;19.10;40.50;;;;;;4920108;29;20453;-80
2022/05/27 12:39:51;;;;;;;1.97;1.87;;;19.20;40.50;;;;;;4920315;29;20474;-78
2022/05/27 12:42:20;;;;;;;2.23;1.97;;;19.20;40.20;;;;;;4920293;29;20493;-79
2022/05/27 12:44:49;;;;;;;3.93;2.20;;;19.20;40.60;;;;;;4938213;29;20465;-78
2022/05/27 12:47:19;;;;;;;3.57;2.20;;;19.40;40.10;;;;;;4924257;29;20447;-78
2022/05/27 12:49:50;;;;;;;2.87;1.80;;;19.70;39.70;;;;;;4926610;29;20435;-77
2022/05/27 12:52:44;;;;;;;2.60;1.83;;;19.80;38.60;;;;;;4935876;29;20560;-80
2022/05/27 12:55:13;;;;;;;2.10;1.90;;;20.30;39.10;;;;;;4921322;29;20429;-78
2022/05/27 13:00:58;;;;;;;2.27;2.07;;;20.40;38.80;;;;;;4918287;29;20435;-77
2022/05/27 13:03:46;;;;;;;3.90;2.20;;;20.20;39.00;;;;;;4924902;29;20491;-79
2022/05/27 13:06:31;;;;;;;3.43;2.00;;;20.10;39.00;;;;;;4925576;29;20547;-78
2022/05/27 13:09:01;;;;;;;2.30;2.10;;;19.90;38.70;;;;;;4922681;29;21191;-79
2022/05/27 13:11:44;;;;;;;2.97;2.00;;;19.60;39.80;;;;;;4924671;29;20451;-80
2022/05/27 13:14:19;;;;;;;2.23;1.80;;;19.50;40.30;;;;;;4923678;29;21070;-77
2022/05/27 13:16:50;;;;;;;2.23;1.80;;;19.50;40.60;;;;;;4925252;29;20507;-77
2022/05/27 13:19:30;;;;;;;4.30;2.60;;;19.40;40.80;;;;;;4925779;29;20469;-79
2022/05/27 13:22:03;;;;;;;3.20;2.00;;;19.20;41.30;;;;;;4926869;29;20451;-77
2022/05/27 13:24:34;;;;;;;2.83;1.73;;;19.00;41.70;;;;;;4926982;29;20791;-78
2022/05/27 13:27:10;;;;;;;1.87;1.70;;;18.90;42.00;;;;;;4927805;29;20441;-78
2022/05/27 13:29:45;;;;;;;1.80;1.70;;;18.90;42.20;;;;;;4924907;29;20451;-78
2022/05/27 13:32:17;;;;;;;2.70;1.77;;;19.00;41.70;;;;;;4926262;29;20466;-78
2022/05/27 13:34:49;;;;;;;4.10;2.10;;;19.10;41.90;;;;;;4928012;29;20473;-77
2022/05/27 13:37:23;;;;;;;3.80;1.90;;;19.20;41.50;;;;;;4927763;29;20525;-77
2022/05/27 13:39:56;;;;;;;6.00;1.50;;;19.40;41.50;;;;;;4928817;29;20482;-78